Montese, Brazil
Current Conditions -  °F | °C
As of 1:10 PM on Wednesday 26 Nov 2014 (Local Time) from SBCG Reporting Station
Moderate Rain Moderate Rain  
Wind Chill: 72°   Ceiling: 1200
Heat Index: NA   Visibility: 1mi
Dew Point: NA   Wind: 9mph
Humidity: NA   Direction: 350°N
Pressure: 29.85"   Gusts: NA
Location:  22.03°S, 54.74°W
Report Text: SBCG 261610Z 35008KT 1600 RA SCT008 BKN012 FEW045TCU BKN100 22/21 Q1011
Loading
Personal Weather Stations






























Interactive Weather Map New forecast layout! Learn more

10-Day Weather Forecast

Advertisements
Track Severe Weather on mobile